createdAt,value
2023-02-19T00:01:10.747Z,83.54
2023-02-19T00:03:38.665Z,84.36
2023-02-19T00:06:07.461Z,85.34
2023-02-19T00:08:36.475Z,86.06
2023-02-19T00:11:07.939Z,87.63
2023-02-19T00:13:39.835Z,88.63
2023-02-19T00:16:07.700Z,90.47
2023-02-19T00:18:34.638Z,91.73
2023-02-19T00:21:01.583Z,93.31
2023-02-19T00:23:28.105Z,94.55
2023-02-19T00:25:55.380Z,95.29
2023-02-19T00:28:22.221Z,96.41
2023-02-19T00:30:48.771Z,97.32
2023-02-19T00:33:16.227Z,98.46
2023-02-19T00:35:42.811Z,99.63
2023-02-19T00:38:10.702Z,99.64
2023-02-19T00:40:38.837Z,99.95
2023-02-19T00:43:05.307Z,100.00
2023-02-19T00:45:31.817Z,100.00
2023-02-19T00:47:58.343Z,100.00
2023-02-19T00:50:24.893Z,99.25
2023-02-19T00:52:51.373Z,98.64
2023-02-19T00:55:17.973Z,98.81
2023-02-19T00:57:44.437Z,98.07
2023-02-19T01:00:12.906Z,98.86
2023-02-19T01:02:39.367Z,98.72
2023-02-19T01:05:06.444Z,99.62
2023-02-19T01:07:35.970Z,99.15
2023-02-19T01:10:02.454Z,99.21
2023-02-19T01:12:29.077Z,97.78
2023-02-19T01:14:55.679Z,98.45
2023-02-19T01:17:22.247Z,98.18
2023-02-19T01:19:48.742Z,97.02
2023-02-19T01:22:15.233Z,96.25
2023-02-19T01:24:41.757Z,96.72
2023-02-19T01:27:08.316Z,95.72
2023-02-19T01:29:34.818Z,94.62
2023-02-19T01:32:01.462Z,94.60
2023-02-19T01:34:30.416Z,93.99
2023-02-19T01:36:56.913Z,93.63
2023-02-19T01:39:23.402Z,93.53
2023-02-19T01:41:50.025Z,93.58
2023-02-19T01:44:18.108Z,94.31
2023-02-19T01:46:51.493Z,93.74
2023-02-19T01:49:23.283Z,93.81
2023-02-19T01:52:04.317Z,92.02
2023-02-19T01:54:35.071Z,91.62
2023-02-19T01:57:06.853Z,92.82
2023-02-19T01:59:34.193Z,94.06
2023-02-19T02:02:01.021Z,92.74
2023-02-19T02:04:30.910Z,93.70
2023-02-19T02:06:59.748Z,92.60
2023-02-19T02:09:47.407Z,93.28
2023-02-19T02:12:14.016Z,93.50
2023-02-19T02:14:45.684Z,95.70
2023-02-19T02:17:26.365Z,97.58
2023-02-19T02:20:11.060Z,100.00
2023-02-19T02:22:45.626Z,100.00
2023-02-19T02:25:14.844Z,100.00
2023-02-19T02:28:21.878Z,100.00
2023-02-19T02:31:09.927Z,100.00
2023-02-19T02:33:44.451Z,100.00
2023-02-19T02:36:18.546Z,100.00
2023-02-19T02:38:47.335Z,100.00
2023-02-19T02:41:15.183Z,100.00
2023-02-19T02:43:41.879Z,100.00
2023-02-19T02:46:14.045Z,100.00
2023-02-19T02:48:43.839Z,100.00
2023-02-19T02:51:18.946Z,100.00
2023-02-19T02:54:12.036Z,100.00
2023-02-19T02:56:41.237Z,100.00
2023-02-19T02:59:10.782Z,100.00
2023-02-19T03:02:04.418Z,100.00
2023-02-19T03:05:14.814Z,100.00
2023-02-19T03:07:55.812Z,100.00
2023-02-19T03:10:45.907Z,100.00
2023-02-19T03:13:50.779Z,100.00
2023-02-19T03:16:49.328Z,100.00
2023-02-19T03:19:20.967Z,100.00
2023-02-19T03:21:55.041Z,100.00
2023-02-19T03:24:45.324Z,100.00
2023-02-19T03:27:13.996Z,100.00
2023-02-19T03:29:42.868Z,100.00
2023-02-19T03:32:35.620Z,100.00
2023-02-19T03:35:07.184Z,100.00
2023-02-19T03:37:44.101Z,100.00
2023-02-19T03:40:11.875Z,100.00
2023-02-19T03:42:56.932Z,100.00
2023-02-19T03:45:27.568Z,100.00
2023-02-19T03:48:02.911Z,100.00
2023-02-19T03:50:56.085Z,100.00
2023-02-19T03:53:34.135Z,100.00
2023-02-19T03:56:10.022Z,100.00
2023-02-19T03:59:00.893Z,100.00
2023-02-19T04:01:35.088Z,100.00
2023-02-19T04:04:16.896Z,100.00
2023-02-19T04:06:46.624Z,100.00
2023-02-19T04:09:15.078Z,100.00
2023-02-19T04:11:41.914Z,100.00
2023-02-19T04:14:17.905Z,100.00
2023-02-19T04:16:47.716Z,100.00
2023-02-19T04:19:18.844Z,100.00
2023-02-19T04:21:47.049Z,100.00
2023-02-19T04:24:19.235Z,100.00
2023-02-19T04:26:46.218Z,100.00
2023-02-19T04:29:12.732Z,100.00
2023-02-19T04:31:39.382Z,100.00
2023-02-19T04:34:06.072Z,100.00
2023-02-19T04:36:33.183Z,100.00
2023-02-19T04:38:59.754Z,100.00
2023-02-19T04:41:26.493Z,100.00
2023-02-19T04:43:53.224Z,100.00
2023-02-19T04:46:19.756Z,100.00
2023-02-19T04:48:46.249Z,100.00
2023-02-19T04:51:13.070Z,100.00
2023-02-19T04:53:39.716Z,100.00
2023-02-19T04:56:11.793Z,100.00
2023-02-19T04:58:38.621Z,100.00
2023-02-19T05:01:05.227Z,100.00
2023-02-19T05:03:32.124Z,100.00
2023-02-19T05:06:02.808Z,100.00
2023-02-19T05:08:29.374Z,100.00
2023-02-19T05:11:00.821Z,100.00
2023-02-19T05:13:28.249Z,100.00
2023-02-19T05:15:59.779Z,100.00
2023-02-19T05:18:26.722Z,100.00
2023-02-19T05:20:53.700Z,100.00
2023-02-19T05:23:21.093Z,100.00
2023-02-19T05:25:47.600Z,100.00
2023-02-19T05:28:19.702Z,100.00
2023-02-19T05:30:47.080Z,100.00
2023-02-19T05:33:14.495Z,100.00
2023-02-19T05:35:45.825Z,100.00
2023-02-19T05:38:13.022Z,100.00
2023-02-19T05:40:40.474Z,100.00
2023-02-19T05:43:08.086Z,100.00
2023-02-19T05:45:35.340Z,100.00
2023-02-19T05:48:02.496Z,100.00
2023-02-19T05:50:30.072Z,100.00
2023-02-19T05:52:56.659Z,100.00
2023-02-19T05:55:24.075Z,100.00
2023-02-19T05:57:50.563Z,100.00
2023-02-19T06:00:19.420Z,100.00
2023-02-19T06:02:46.687Z,100.00
2023-02-19T06:05:13.863Z,100.00
2023-02-19T06:07:41.662Z,100.00
2023-02-19T06:10:10.181Z,100.00
2023-02-19T06:12:37.448Z,100.00
2023-02-19T06:15:05.667Z,100.00
2023-02-19T06:17:33.483Z,100.00
2023-02-19T06:20:00.469Z,100.00
2023-02-19T06:22:28.003Z,100.00
2023-02-19T06:24:54.502Z,100.00
2023-02-19T06:27:21.018Z,100.00
2023-02-19T06:29:47.487Z,100.00
2023-02-19T06:32:14.174Z,100.00
2023-02-19T06:34:40.890Z,100.00
2023-02-19T06:37:07.462Z,100.00
2023-02-19T06:39:33.932Z,100.00
2023-02-19T06:42:00.463Z,100.00
2023-02-19T06:44:26.927Z,100.00
2023-02-19T06:46:56.349Z,100.00
2023-02-19T06:49:22.964Z,100.00
2023-02-19T06:51:49.538Z,100.00
2023-02-19T06:54:16.017Z,100.00
2023-02-19T06:56:43.946Z,100.00
2023-02-19T06:59:16.840Z,100.00
2023-02-19T07:01:44.888Z,100.00
2023-02-19T07:04:11.951Z,100.00
2023-02-19T07:06:39.300Z,100.00
2023-02-19T07:09:07.560Z,100.00
2023-02-19T07:11:36.418Z,100.00
2023-02-19T07:14:04.699Z,100.00
2023-02-19T07:16:31.286Z,100.00
2023-02-19T07:18:59.635Z,100.00
2023-02-19T07:21:27.696Z,100.00
2023-02-19T07:23:54.813Z,100.00
2023-02-19T07:26:21.753Z,100.00
2023-02-19T07:28:50.550Z,100.00
2023-02-19T07:31:19.351Z,100.00
2023-02-19T07:33:47.064Z,100.00
2023-02-19T07:36:16.902Z,100.00
2023-02-19T07:38:43.957Z,100.00
2023-02-19T07:41:10.969Z,100.00
2023-02-19T07:43:38.782Z,100.00
2023-02-19T07:46:06.919Z,100.00
2023-02-19T07:48:35.426Z,100.00
2023-02-19T07:51:03.681Z,100.00
2023-02-19T07:53:30.472Z,100.00
2023-02-19T07:56:02.287Z,100.00
2023-02-19T07:58:29.480Z,100.00
2023-02-19T08:00:56.077Z,100.00
2023-02-19T08:03:22.695Z,100.00
2023-02-19T08:05:53.819Z,100.00
2023-02-19T08:08:20.428Z,100.00
2023-02-19T08:11:05.443Z,100.00
2023-02-19T08:13:31.968Z,100.00
2023-02-19T08:16:16.045Z,100.00
2023-02-19T08:18:46.062Z,100.00
2023-02-19T08:21:13.151Z,100.00
2023-02-19T08:23:40.146Z,100.00
2023-02-19T08:26:07.011Z,100.00
2023-02-19T08:28:33.563Z,100.00
2023-02-19T08:31:06.491Z,100.00
2023-02-19T08:33:33.585Z,100.00
2023-02-19T08:36:05.535Z,100.00
2023-02-19T08:38:34.782Z,100.00
2023-02-19T08:41:06.180Z,100.00
2023-02-19T08:43:33.135Z,100.00
2023-02-19T08:45:59.681Z,100.00
2023-02-19T08:48:26.392Z,100.00
2023-02-19T08:51:05.124Z,100.00
2023-02-19T08:53:32.887Z,100.00
2023-02-19T08:55:59.420Z,100.00
2023-02-19T08:58:26.412Z,100.00
2023-02-19T09:00:53.546Z,100.00
2023-02-19T09:03:20.074Z,100.00
2023-02-19T09:05:49.757Z,100.00
2023-02-19T09:08:16.462Z,100.00
2023-02-19T09:10:43.249Z,100.00
2023-02-19T09:13:09.736Z,100.00
2023-02-19T09:15:38.679Z,100.00
2023-02-19T09:18:05.215Z,100.00
2023-02-19T09:20:31.658Z,100.00
2023-02-19T09:22:59.460Z,100.00
2023-02-19T09:25:26.148Z,100.00
2023-02-19T09:27:56.282Z,100.00
2023-02-19T09:30:22.787Z,100.00
2023-02-19T09:32:49.405Z,100.00
2023-02-19T09:35:15.988Z,100.00
2023-02-19T09:37:42.529Z,100.00
2023-02-19T09:40:10.036Z,100.00
2023-02-19T09:42:41.756Z,100.00
2023-02-19T09:45:13.601Z,100.00
2023-02-19T09:47:40.088Z,100.00
2023-02-19T09:50:09.020Z,100.00
2023-02-19T09:52:47.778Z,100.00
2023-02-19T09:55:37.928Z,100.00
2023-02-19T09:58:28.116Z,100.00
2023-02-19T10:00:55.689Z,99.82
2023-02-19T10:03:31.745Z,99.55
2023-02-19T10:06:01.818Z,99.65
2023-02-19T10:08:31.956Z,99.42
2023-02-19T10:11:00.045Z,97.94
2023-02-19T10:14:09.207Z,97.25
2023-02-19T10:16:40.736Z,97.04
2023-02-19T10:19:12.286Z,95.76
2023-02-19T10:21:39.858Z,91.41
2023-02-19T10:24:07.367Z,89.92
2023-02-19T10:26:37.432Z,87.87
2023-02-19T10:29:04.220Z,88.70
2023-02-19T10:31:32.783Z,85.75
2023-02-19T10:34:01.982Z,84.12
2023-02-19T10:36:32.116Z,81.34
2023-02-19T10:39:01.611Z,79.96
2023-02-19T10:41:28.924Z,81.55
2023-02-19T10:44:01.316Z,80.11
2023-02-19T10:46:31.663Z,72.25
2023-02-19T10:49:06.620Z,69.35
2023-02-19T10:51:37.327Z,70.68
2023-02-19T10:54:29.846Z,71.90
2023-02-19T10:57:16.797Z,76.15
2023-02-19T10:59:58.680Z,80.33
2023-02-19T11:02:27.659Z,78.76
2023-02-19T11:05:16.228Z,77.83
2023-02-19T11:07:49.825Z,71.90
2023-02-19T11:10:28.404Z,48.02
2023-02-19T11:12:59.259Z,42.21
2023-02-19T11:15:33.497Z,35.60
2023-02-19T11:18:30.758Z,35.70
2023-02-19T11:21:03.781Z,41.43
2023-02-19T11:23:44.146Z,45.19
2023-02-19T11:26:20.823Z,40.98
2023-02-19T11:28:59.937Z,41.30
2023-02-19T11:31:35.320Z,36.38
2023-02-19T11:34:02.916Z,37.61
2023-02-19T11:36:37.658Z,41.35
2023-02-19T11:39:10.330Z,45.69
2023-02-19T11:42:11.506Z,48.33
2023-02-19T11:44:59.114Z,50.98
2023-02-19T11:47:49.809Z,53.51
2023-02-19T11:50:27.085Z,57.81
2023-02-19T11:53:03.380Z,60.54
2023-02-19T11:55:42.098Z,63.01
2023-02-19T11:58:46.272Z,63.95
2023-02-19T12:01:26.607Z,61.92
2023-02-19T12:04:17.637Z,61.67
2023-02-19T12:06:59.323Z,43.23
2023-02-19T12:09:53.760Z,27.78
2023-02-19T12:12:31.844Z,25.17
2023-02-19T12:15:09.512Z,23.10
2023-02-19T12:18:11.121Z,21.04
2023-02-19T12:21:01.561Z,20.30
2023-02-19T12:23:53.516Z,22.32
2023-02-19T12:26:35.753Z,25.84
2023-02-19T12:29:20.251Z,26.48
2023-02-19T12:31:46.784Z,29.36
2023-02-19T12:34:40.166Z,28.39
2023-02-19T12:37:14.498Z,28.09
2023-02-19T12:39:47.071Z,27.24
2023-02-19T12:42:58.042Z,28.18
2023-02-19T12:45:31.830Z,29.65
2023-02-19T12:48:16.464Z,29.00
2023-02-19T12:50:47.657Z,28.56
2023-02-19T12:53:38.994Z,32.80
2023-02-19T12:56:14.800Z,35.78
2023-02-19T12:58:48.795Z,37.54
2023-02-19T13:01:22.400Z,37.72
2023-02-19T13:03:58.125Z,40.51
2023-02-19T13:06:40.119Z,41.74
2023-02-19T13:09:23.450Z,43.99
2023-02-19T13:11:55.804Z,44.50
2023-02-19T13:14:56.928Z,45.13
2023-02-19T13:17:47.080Z,46.72
2023-02-19T13:20:22.961Z,48.09
2023-02-19T13:23:17.001Z,49.70
2023-02-19T13:26:10.826Z,51.02
2023-02-19T13:29:14.528Z,51.33
2023-02-19T13:32:05.433Z,52.82
2023-02-19T13:35:11.391Z,53.27
2023-02-19T13:37:38.329Z,54.65
2023-02-19T13:40:19.365Z,54.35
2023-02-19T13:42:53.942Z,55.19
2023-02-19T13:45:37.018Z,55.82
2023-02-19T13:48:23.683Z,57.10
2023-02-19T13:51:11.293Z,56.33
2023-02-19T13:53:47.985Z,55.89
2023-02-19T13:56:35.528Z,55.94
2023-02-19T13:59:10.934Z,57.44
2023-02-19T14:01:49.574Z,57.72
2023-02-19T14:04:22.014Z,58.81
2023-02-19T14:07:03.825Z,59.05
2023-02-19T14:09:36.227Z,59.07
2023-02-19T14:12:09.577Z,60.34
2023-02-19T14:14:40.648Z,60.23
2023-02-19T14:17:09.933Z,60.14
2023-02-19T14:19:42.668Z,60.35
2023-02-19T14:22:52.005Z,61.62
2023-02-19T14:25:27.387Z,60.73
2023-02-19T14:28:17.195Z,61.14
2023-02-19T14:30:46.809Z,60.97
2023-02-19T14:33:16.587Z,61.31
2023-02-19T14:35:49.373Z,62.25
2023-02-19T14:38:30.304Z,62.60
2023-02-19T14:40:57.505Z,62.16
2023-02-19T14:43:26.873Z,62.43
2023-02-19T14:46:04.880Z,61.92
2023-02-19T14:48:39.023Z,61.38
2023-02-19T14:51:15.160Z,61.95
2023-02-19T14:53:45.328Z,62.38
2023-02-19T14:56:23.413Z,61.69
2023-02-19T14:59:08.010Z,62.83
2023-02-19T15:01:34.570Z,62.26
2023-02-19T15:04:01.100Z,63.35
2023-02-19T15:06:29.238Z,64.85
2023-02-19T15:09:02.088Z,64.88
2023-02-19T15:11:32.439Z,65.31
2023-02-19T15:14:02.849Z,65.45
2023-02-19T15:16:32.350Z,67.53
2023-02-19T15:19:00.677Z,65.97
2023-02-19T15:21:37.868Z,65.44
2023-02-19T15:24:06.282Z,64.89
2023-02-19T15:26:40.885Z,64.18
2023-02-19T15:29:16.016Z,65.79
2023-02-19T15:31:56.277Z,65.62
2023-02-19T15:34:31.451Z,65.01
2023-02-19T15:37:01.723Z,65.83
2023-02-19T15:39:39.722Z,65.03
2023-02-19T15:42:09.338Z,65.52
2023-02-19T15:44:45.938Z,64.10
2023-02-19T15:47:37.552Z,65.70
2023-02-19T15:50:13.356Z,66.35
2023-02-19T15:52:54.141Z,65.81
2023-02-19T15:55:39.153Z,66.30
2023-02-19T15:58:23.477Z,67.26
2023-02-19T16:01:00.442Z,68.28
2023-02-19T16:03:29.251Z,68.55
2023-02-19T16:06:14.788Z,70.58
2023-02-19T16:08:43.790Z,70.65
2023-02-19T16:11:22.258Z,72.12
2023-02-19T16:13:50.119Z,73.18
2023-02-19T16:16:35.323Z,73.15
2023-02-19T16:19:02.216Z,74.52
2023-02-19T16:21:29.058Z,77.83
2023-02-19T16:24:16.676Z,84.31
2023-02-19T16:26:44.738Z,88.30
2023-02-19T16:29:32.348Z,89.40
2023-02-19T16:32:02.313Z,91.03
2023-02-19T16:34:48.656Z,92.59
2023-02-19T16:37:38.189Z,93.22
2023-02-19T16:40:07.542Z,95.01
2023-02-19T16:42:35.924Z,95.41
2023-02-19T16:45:02.646Z,97.82
2023-02-19T16:47:32.072Z,98.45
2023-02-19T16:50:01.757Z,98.46
2023-02-19T16:52:28.599Z,98.22
2023-02-19T16:54:55.222Z,96.21
2023-02-19T16:57:21.834Z,96.70
2023-02-19T16:59:48.447Z,97.17
2023-02-19T17:02:20.371Z,96.81
2023-02-19T17:04:48.540Z,98.43
2023-02-19T17:07:16.946Z,99.47
2023-02-19T17:09:43.615Z,100.00
2023-02-19T17:12:15.732Z,99.69
2023-02-19T17:14:42.248Z,99.49
2023-02-19T17:17:08.826Z,99.21
2023-02-19T17:19:35.347Z,98.69
2023-02-19T17:22:02.099Z,98.21
2023-02-19T17:24:28.620Z,97.68
2023-02-19T17:26:55.220Z,97.47
2023-02-19T17:29:22.048Z,97.18
2023-02-19T17:31:48.655Z,96.40
2023-02-19T17:34:15.220Z,95.21
2023-02-19T17:36:44.905Z,94.65
2023-02-19T17:39:15.351Z,96.22
2023-02-19T17:41:42.204Z,96.03
2023-02-19T17:44:09.092Z,96.90
2023-02-19T17:46:35.925Z,96.40
2023-02-19T17:49:02.437Z,96.95
2023-02-19T17:51:28.985Z,96.73
2023-02-19T17:53:55.513Z,96.40
2023-02-19T17:56:25.618Z,97.23
2023-02-19T17:58:52.052Z,97.53
2023-02-19T18:01:18.709Z,96.89
2023-02-19T18:03:45.790Z,96.97
2023-02-19T18:06:12.357Z,96.96
2023-02-19T18:08:38.900Z,97.87
2023-02-19T18:11:07.362Z,98.79
2023-02-19T18:13:33.932Z,98.63
2023-02-19T18:16:00.489Z,99.52
2023-02-19T18:18:27.005Z,99.62
2023-02-19T18:20:53.485Z,100.00
2023-02-19T18:23:20.708Z,100.00
2023-02-19T18:25:47.521Z,100.00
2023-02-19T18:28:14.972Z,100.00
2023-02-19T18:30:41.607Z,100.00
2023-02-19T18:33:10.801Z,100.00
2023-02-19T18:35:38.066Z,100.00
2023-02-19T18:38:04.668Z,100.00
2023-02-19T18:40:31.380Z,100.00
2023-02-19T18:42:58.655Z,100.00
2023-02-19T18:45:25.413Z,100.00
2023-02-19T18:47:52.020Z,100.00
2023-02-19T18:50:19.510Z,100.00
2023-02-19T18:52:46.491Z,100.00
2023-02-19T18:55:13.248Z,99.82
2023-02-19T18:57:39.740Z,99.89
2023-02-19T19:00:07.484Z,99.43
2023-02-19T19:02:48.339Z,100.00
2023-02-19T19:05:18.512Z,100.00
2023-02-19T19:07:45.033Z,100.00
2023-02-19T19:10:11.571Z,100.00
2023-02-19T19:12:38.099Z,99.82
2023-02-19T19:15:05.499Z,100.00
2023-02-19T19:17:32.068Z,100.00
2023-02-19T19:19:58.580Z,100.00
2023-02-19T19:22:26.662Z,100.00
2023-02-19T19:24:53.295Z,100.00
2023-02-19T19:27:20.182Z,100.00
2023-02-19T19:29:47.411Z,100.00
2023-02-19T19:32:14.237Z,98.12
2023-02-19T19:34:42.834Z,98.02
2023-02-19T19:37:10.126Z,96.79
2023-02-19T19:39:37.124Z,97.25
2023-02-19T19:42:04.464Z,97.06
2023-02-19T19:44:30.927Z,97.37
2023-02-19T19:46:57.463Z,98.61
2023-02-19T19:49:24.294Z,97.49
2023-02-19T19:51:50.824Z,96.63
2023-02-19T19:54:17.475Z,97.23
2023-02-19T19:56:46.129Z,97.70
2023-02-19T19:59:14.384Z,98.18
2023-02-19T20:01:49.087Z,97.58
2023-02-19T20:04:16.313Z,97.29
2023-02-19T20:06:43.068Z,96.56
2023-02-19T20:09:09.620Z,96.72
2023-02-19T20:11:42.750Z,96.11
2023-02-19T20:14:11.061Z,94.45
2023-02-19T20:16:37.557Z,95.41
2023-02-19T20:19:04.764Z,94.89
2023-02-19T20:21:31.739Z,96.22
2023-02-19T20:23:58.225Z,95.79
2023-02-19T20:26:26.530Z,94.50
2023-02-19T20:28:54.573Z,95.21
2023-02-19T20:31:22.031Z,94.74
2023-02-19T20:33:51.003Z,95.36
2023-02-19T20:36:19.971Z,96.26
2023-02-19T20:38:47.228Z,95.01
2023-02-19T20:41:13.985Z,95.14
2023-02-19T20:43:40.745Z,95.35
2023-02-19T20:46:07.707Z,96.83
2023-02-19T20:48:34.314Z,98.09
2023-02-19T20:51:00.914Z,98.73
2023-02-19T20:53:28.610Z,99.11
2023-02-19T20:55:56.237Z,99.73
2023-02-19T20:58:23.545Z,99.28
2023-02-19T21:00:50.197Z,98.82
2023-02-19T21:03:16.675Z,99.05
2023-02-19T21:05:43.333Z,99.51
2023-02-19T21:08:11.654Z,100.00
2023-02-19T21:10:38.352Z,100.00
2023-02-19T21:13:04.907Z,100.00
2023-02-19T21:15:31.584Z,100.00
2023-02-19T21:17:58.141Z,100.00
2023-02-19T21:20:24.589Z,100.00
2023-02-19T21:22:51.143Z,98.79
2023-02-19T21:25:17.692Z,98.12
2023-02-19T21:27:44.213Z,97.81
2023-02-19T21:30:10.980Z,96.45
2023-02-19T21:32:37.597Z,95.80
2023-02-19T21:35:04.429Z,96.38
2023-02-19T21:37:30.909Z,95.93
2023-02-19T21:39:58.735Z,97.06
2023-02-19T21:42:25.233Z,96.24
2023-02-19T21:44:51.802Z,95.84
2023-02-19T21:47:18.356Z,96.50
2023-02-19T21:49:45.588Z,96.38
2023-02-19T21:52:12.175Z,96.07
2023-02-19T21:54:38.786Z,97.16
2023-02-19T21:57:05.386Z,97.15
2023-02-19T21:59:31.897Z,97.79
2023-02-19T22:01:58.432Z,97.55
2023-02-19T22:04:24.950Z,96.88
2023-02-19T22:06:54.889Z,97.18
2023-02-19T22:09:21.411Z,97.45
2023-02-19T22:11:47.887Z,97.29
2023-02-19T22:14:14.457Z,97.88
2023-02-19T22:16:41.019Z,97.17
2023-02-19T22:19:07.591Z,97.54
2023-02-19T22:21:34.103Z,98.19
2023-02-19T22:24:02.505Z,98.95
2023-02-19T22:26:35.679Z,99.25
2023-02-19T22:29:07.148Z,99.28
2023-02-19T22:31:34.788Z,99.48
2023-02-19T22:34:01.453Z,98.99
2023-02-19T22:36:40.314Z,98.10
2023-02-19T22:39:08.776Z,97.36
2023-02-19T22:41:35.294Z,97.53
2023-02-19T22:44:02.038Z,97.87
2023-02-19T22:46:30.537Z,98.81
2023-02-19T22:48:57.601Z,98.61
2023-02-19T22:51:25.570Z,99.18
2023-02-19T22:53:57.204Z,100.00
2023-02-19T22:56:26.381Z,100.00
2023-02-19T22:58:54.396Z,100.00
2023-02-19T23:01:21.552Z,100.00
2023-02-19T23:03:49.321Z,100.00
2023-02-19T23:06:24.498Z,100.00
2023-02-19T23:08:52.281Z,100.00
2023-02-19T23:11:26.190Z,100.00
2023-02-19T23:13:53.401Z,99.29
2023-02-19T23:16:20.277Z,100.00
2023-02-19T23:18:46.977Z,100.00
2023-02-19T23:21:13.864Z,100.00
2023-02-19T23:23:45.148Z,100.00
2023-02-19T23:26:13.352Z,100.00
2023-02-19T23:28:40.874Z,100.00
2023-02-19T23:31:07.930Z,100.00
2023-02-19T23:33:35.374Z,100.00
2023-02-19T23:36:02.184Z,100.00
2023-02-19T23:38:28.702Z,100.00
2023-02-19T23:40:55.269Z,100.00
2023-02-19T23:43:21.783Z,100.00
2023-02-19T23:45:48.364Z,100.00
2023-02-19T23:48:14.961Z,100.00
2023-02-19T23:50:41.638Z,100.00
2023-02-19T23:53:08.265Z,100.00
2023-02-19T23:55:34.736Z,100.00
2023-02-19T23:58:01.348Z,100.00
